< < Back
Terminal Aerodrome Forecast


Current Version              Previous Versions:   1  2  3  4  5  6  7  8  9  

Terminal Aerodrome Forecast

542
FTUS42 KGSP 312300
TAFGSP
TAF
KGSP 312339Z 0100/0124 04007KT P6SM -SHRA OVC080
     FM010300 03007KT 5SM SHRA OVC018
     FM010700 03007KT 5SM -SHRA BR OVC009
     FM011000 03006KT 4SM -SHRA BR VCTS OVC006CB
     FM011600 07007KT 5SM -SHRA VCTS OVC016CB
     FM011800 07008KT P6SM -SHRA VCTS OVC024CB=

Latest METAR

057
SAUS70 KWBC 312300 RRM
MTRGSP
METAR KGSP 312253Z 02006KT 10SM OVC080 20/18 A3010 RMK AO2 SLP185
T02000178


USA.gov is the U.S. government's official web portal to all federal, state and local government web resources and services.